sensor_id;sensor_type;location;lat;lon;timestamp;pressure;altitude;pressure_sealevel;temperature;humidity
85197;BME280;75566;42.698;23.346;2024-03-23T00:55:54;95562.16;;;5.33;57.63
85197;BME280;75566;42.698;23.346;2024-03-23T00:58:19;95564.38;;;5.34;57.56
85197;BME280;75566;42.698;23.346;2024-03-23T01:00:45;95556.25;;;5.34;57.76
85197;BME280;75566;42.698;23.346;2024-03-23T01:03:10;95561.44;;;5.32;57.83
85197;BME280;75566;42.698;23.346;2024-03-23T01:05:36;95559.69;;;5.29;57.94
85197;BME280;75566;42.698;23.346;2024-03-23T01:08:01;95554.78;;;5.27;57.97
85197;BME280;75566;42.698;23.346;2024-03-23T01:10:27;95555.78;;;5.24;57.47
85197;BME280;75566;42.698;23.346;2024-03-23T01:12:52;95550.13;;;5.17;57.89
85197;BME280;75566;42.698;23.346;2024-03-23T01:15:18;95545.72;;;5.02;57.46
85197;BME280;75566;42.698;23.346;2024-03-23T01:17:43;95553.63;;;4.95;57.72
85197;BME280;75566;42.698;23.346;2024-03-23T01:20:09;95543.06;;;4.85;58.41
85197;BME280;75566;42.698;23.346;2024-03-23T01:22:34;95548.22;;;4.72;58.12
85197;BME280;75566;42.698;23.346;2024-03-23T01:25:00;95546.25;;;4.61;59.33
85197;BME280;75566;42.698;23.346;2024-03-23T01:27:25;95546.00;;;4.59;59.77
85197;BME280;75566;42.698;23.346;2024-03-23T01:29:51;95559.06;;;4.72;59.73
85197;BME280;75566;42.698;23.346;2024-03-23T01:32:18;95554.88;;;4.71;59.79
85197;BME280;75566;42.698;23.346;2024-03-23T01:34:44;95553.41;;;4.64;58.76
85197;BME280;75566;42.698;23.346;2024-03-23T01:37:09;95561.50;;;4.25;60.13
85197;BME280;75566;42.698;23.346;2024-03-23T01:39:35;95551.88;;;4.01;61.44
85197;BME280;75566;42.698;23.346;2024-03-23T01:42:00;95558.28;;;3.93;60.63
85197;BME280;75566;42.698;23.346;2024-03-23T01:44:26;95554.78;;;3.81;62.13
85197;BME280;75566;42.698;23.346;2024-03-23T01:46:51;95547.59;;;3.66;61.90
85197;BME280;75566;42.698;23.346;2024-03-23T01:49:17;95551.56;;;3.77;61.39
85197;BME280;75566;42.698;23.346;2024-03-23T01:51:43;95550.84;;;3.82;61.65
85197;BME280;75566;42.698;23.346;2024-03-23T01:54:10;95545.19;;;3.85;62.34
85197;BME280;75566;42.698;23.346;2024-03-23T01:56:35;95542.75;;;3.93;62.58
85197;BME280;75566;42.698;23.346;2024-03-23T01:59:02;95554.84;;;4.03;61.41
85197;BME280;75566;42.698;23.346;2024-03-23T02:01:27;95560.25;;;4.09;60.83
85197;BME280;75566;42.698;23.346;2024-03-23T02:03:53;95559.25;;;4.01;60.93
85197;BME280;75566;42.698;23.346;2024-03-23T02:06:18;95553.28;;;3.80;61.77
85197;BME280;75566;42.698;23.346;2024-03-23T02:08:44;95556.47;;;3.73;61.79
85197;BME280;75566;42.698;23.346;2024-03-23T02:11:10;95557.97;;;3.79;61.79
85197;BME280;75566;42.698;23.346;2024-03-23T02:13:35;95554.31;;;3.88;62.22
85197;BME280;75566;42.698;23.346;2024-03-23T02:16:01;95566.13;;;3.96;61.91
85197;BME280;75566;42.698;23.346;2024-03-23T02:18:26;95563.13;;;3.77;61.92
85197;BME280;75566;42.698;23.346;2024-03-23T02:20:52;95572.53;;;3.28;62.63
85197;BME280;75566;42.698;23.346;2024-03-23T02:23:18;95570.63;;;2.96;63.76
85197;BME280;75566;42.698;23.346;2024-03-23T02:25:44;95560.97;;;2.84;64.71
85197;BME280;75566;42.698;23.346;2024-03-23T02:28:10;95567.50;;;2.72;65.22
85197;BME280;75566;42.698;23.346;2024-03-23T02:30:36;95573.19;;;2.48;66.21
85197;BME280;75566;42.698;23.346;2024-03-23T02:33:02;95578.63;;;2.21;67.38
85197;BME280;75566;42.698;23.346;2024-03-23T02:35:27;95575.78;;;2.05;67.92
85197;BME280;75566;42.698;23.346;2024-03-23T02:37:53;95568.78;;;1.92;68.38
85197;BME280;75566;42.698;23.346;2024-03-23T02:40:19;95567.91;;;1.80;68.10
85197;BME280;75566;42.698;23.346;2024-03-23T02:42:45;95570.06;;;1.76;68.99
85197;BME280;75566;42.698;23.346;2024-03-23T02:45:11;95559.63;;;1.84;68.98
85197;BME280;75566;42.698;23.346;2024-03-23T02:47:37;95565.81;;;1.90;68.20
85197;BME280;75566;42.698;23.346;2024-03-23T02:50:03;95564.44;;;2.00;68.50
85197;BME280;75566;42.698;23.346;2024-03-23T02:52:29;95562.63;;;2.18;68.34
85197;BME280;75566;42.698;23.346;2024-03-23T02:54:55;95569.22;;;2.37;67.01
85197;BME280;75566;42.698;23.346;2024-03-23T02:57:20;95566.00;;;2.33;66.39
85197;BME280;75566;42.698;23.346;2024-03-23T02:59:46;95558.31;;;2.26;66.46
85197;BME280;75566;42.698;23.346;2024-03-23T03:02:12;95562.69;;;2.23;66.56
85197;BME280;75566;42.698;23.346;2024-03-23T03:04:38;95559.34;;;2.34;66.64
85197;BME280;75566;42.698;23.346;2024-03-23T03:07:04;95561.88;;;2.43;66.20
85197;BME280;75566;42.698;23.346;2024-03-23T03:09:29;95551.41;;;2.51;65.66
85197;BME280;75566;42.698;23.346;2024-03-23T03:11:55;95560.59;;;2.65;65.48
85197;BME280;75566;42.698;23.346;2024-03-23T03:14:20;95566.06;;;2.76;65.07
85197;BME280;75566;42.698;23.346;2024-03-23T03:16:46;95562.44;;;2.85;64.61
85197;BME280;75566;42.698;23.346;2024-03-23T03:19:11;95559.72;;;2.85;63.76
85197;BME280;75566;42.698;23.346;2024-03-23T03:21:37;95562.22;;;2.89;64.40
85197;BME280;75566;42.698;23.346;2024-03-23T03:24:05;95560.78;;;2.93;64.01
85197;BME280;75566;42.698;23.346;2024-03-23T03:26:31;95555.81;;;2.86;63.80
85197;BME280;75566;42.698;23.346;2024-03-23T03:28:57;95568.41;;;2.95;63.74
85197;BME280;75566;42.698;23.346;2024-03-23T03:31:22;95571.16;;;3.00;63.61
85197;BME280;75566;42.698;23.346;2024-03-23T03:33:49;95566.84;;;2.82;63.79
85197;BME280;75566;42.698;23.346;2024-03-23T03:36:15;95571.94;;;2.75;64.24
85197;BME280;75566;42.698;23.346;2024-03-23T03:38:41;95562.94;;;2.83;64.25
85197;BME280;75566;42.698;23.346;2024-03-23T03:41:06;95563.94;;;2.92;63.98
85197;BME280;75566;42.698;23.346;2024-03-23T03:43:32;95565.22;;;2.96;64.08
85197;BME280;75566;42.698;23.346;2024-03-23T03:45:59;95565.50;;;3.04;64.38
85197;BME280;75566;42.698;23.346;2024-03-23T03:48:25;95566.53;;;3.12;64.57
85197;BME280;75566;42.698;23.346;2024-03-23T03:50:52;95570.47;;;3.17;63.55
85197;BME280;75566;42.698;23.346;2024-03-23T03:53:18;95571.97;;;3.18;63.08
85197;BME280;75566;42.698;23.346;2024-03-23T03:55:44;95572.97;;;3.20;63.80
85197;BME280;75566;42.698;23.346;2024-03-23T03:58:09;95571.00;;;3.21;63.40
85197;BME280;75566;42.698;23.346;2024-03-23T04:00:35;95562.66;;;3.24;63.17
85197;BME280;75566;42.698;23.346;2024-03-23T04:03:01;95574.22;;;3.25;63.16
85197;BME280;75566;42.698;23.346;2024-03-23T04:05:26;95567.59;;;3.26;62.63
85197;BME280;75566;42.698;23.346;2024-03-23T04:07:52;95568.59;;;3.29;63.82
85197;BME280;75566;42.698;23.346;2024-03-23T04:10:18;95571.06;;;3.32;62.58
85197;BME280;75566;42.698;23.346;2024-03-23T04:12:44;95573.00;;;3.32;62.10
85197;BME280;75566;42.698;23.346;2024-03-23T04:15:10;95577.19;;;3.27;62.80
85197;BME280;75566;42.698;23.346;2024-03-23T04:17:36;95575.97;;;3.28;63.04
85197;BME280;75566;42.698;23.346;2024-03-23T04:20:02;95581.63;;;3.36;62.85
85197;BME280;75566;42.698;23.346;2024-03-23T04:22:29;95577.25;;;3.38;62.64
85197;BME280;75566;42.698;23.346;2024-03-23T04:24:56;95574.81;;;3.40;62.13
85197;BME280;75566;42.698;23.346;2024-03-23T04:27:22;95579.94;;;3.38;63.38
85197;BME280;75566;42.698;23.346;2024-03-23T04:29:51;95575.25;;;3.33;62.80
85197;BME280;75566;42.698;23.346;2024-03-23T04:32:18;95583.03;;;3.20;61.46
85197;BME280;75566;42.698;23.346;2024-03-23T04:34:44;95582.47;;;3.04;63.28
85197;BME280;75566;42.698;23.346;2024-03-23T04:37:10;95584.19;;;3.08;62.96
85197;BME280;75566;42.698;23.346;2024-03-23T04:39:38;95581.28;;;3.11;62.00
85197;BME280;75566;42.698;23.346;2024-03-23T04:42:04;95582.31;;;3.19;63.31
85197;BME280;75566;42.698;23.346;2024-03-23T04:44:30;95584.75;;;3.17;61.86
85197;BME280;75566;42.698;23.346;2024-03-23T04:46:57;95586.69;;;3.17;63.15
85197;BME280;75566;42.698;23.346;2024-03-23T04:49:22;95587.47;;;3.23;62.68
85197;BME280;75566;42.698;23.346;2024-03-23T04:51:48;95591.47;;;3.28;63.56
85197;BME280;75566;42.698;23.346;2024-03-23T04:54:13;95590.72;;;3.33;63.09
85197;BME280;75566;42.698;23.346;2024-03-23T04:56:39;95583.09;;;3.31;62.34
85197;BME280;75566;42.698;23.346;2024-03-23T04:59:04;95596.19;;;3.44;63.00
85197;BME280;75566;42.698;23.346;2024-03-23T05:01:33;95595.50;;;3.49;62.46
85197;BME280;75566;42.698;23.346;2024-03-23T05:03:59;95595.16;;;3.36;61.43
85197;BME280;75566;42.698;23.346;2024-03-23T05:06:25;95597.66;;;3.39;61.70
85197;BME280;75566;42.698;23.346;2024-03-23T05:08:53;95587.81;;;3.42;62.01
85197;BME280;75566;42.698;23.346;2024-03-23T05:11:19;95592.28;;;3.51;62.90
85197;BME280;75566;42.698;23.346;2024-03-23T05:13:46;95588.41;;;3.57;61.98
85197;BME280;75566;42.698;23.346;2024-03-23T05:16:11;95588.19;;;3.66;61.74
85197;BME280;75566;42.698;23.346;2024-03-23T05:18:37;95586.72;;;3.71;60.73
85197;BME280;75566;42.698;23.346;2024-03-23T05:21:02;95588.19;;;3.66;60.45
85197;BME280;75566;42.698;23.346;2024-03-23T05:23:28;95581.06;;;3.69;60.43
85197;BME280;75566;42.698;23.346;2024-03-23T05:25:55;95582.81;;;3.72;61.02
85197;BME280;75566;42.698;23.346;2024-03-23T05:28:21;95580.59;;;3.76;60.62
85197;BME280;75566;42.698;23.346;2024-03-23T05:30:51;95575.69;;;3.80;60.44
85197;BME280;75566;42.698;23.346;2024-03-23T05:33:18;95577.63;;;3.80;60.43
85197;BME280;75566;42.698;23.346;2024-03-23T05:35:44;95584.31;;;3.84;60.96
85197;BME280;75566;42.698;23.346;2024-03-23T05:38:09;95576.19;;;3.84;60.67
85197;BME280;75566;42.698;23.346;2024-03-23T05:40:35;95590.91;;;3.72;60.98
85197;BME280;75566;42.698;23.346;2024-03-23T05:43:03;95588.44;;;3.69;61.42
85197;BME280;75566;42.698;23.346;2024-03-23T05:45:29;95586.00;;;3.82;61.25
85197;BME280;75566;42.698;23.346;2024-03-23T05:47:54;95580.13;;;3.83;61.10
85197;BME280;75566;42.698;23.346;2024-03-23T05:50:22;95578.44;;;3.97;59.78
85197;BME280;75566;42.698;23.346;2024-03-23T05:52:47;95585.84;;;4.02;60.49
85197;BME280;75566;42.698;23.346;2024-03-23T05:55:13;95573.53;;;4.07;59.40
85197;BME280;75566;42.698;23.346;2024-03-23T05:57:38;95582.38;;;3.91;60.44
85197;BME280;75566;42.698;23.346;2024-03-23T06:00:05;95589.41;;;3.65;59.81
85197;BME280;75566;42.698;23.346;2024-03-23T06:02:35;95579.00;;;3.47;61.65
85197;BME280;75566;42.698;23.346;2024-03-23T06:05:01;95578.03;;;3.50;60.62
85197;BME280;75566;42.698;23.346;2024-03-23T06:07:27;95575.63;;;3.69;62.06
85197;BME280;75566;42.698;23.346;2024-03-23T06:09:53;95586.22;;;3.67;61.77
85197;BME280;75566;42.698;23.346;2024-03-23T06:12:18;95567.78;;;3.71;60.64
85197;BME280;75566;42.698;23.346;2024-03-23T06:14:44;95568.34;;;3.86;60.30
85197;BME280;75566;42.698;23.346;2024-03-23T06:17:09;95571.84;;;4.10;61.65
85197;BME280;75566;42.698;23.346;2024-03-23T06:19:35;95571.88;;;4.38;62.16
85197;BME280;75566;42.698;23.346;2024-03-23T06:22:00;95575.09;;;4.47;59.00
85197;BME280;75566;42.698;23.346;2024-03-23T06:24:26;95567.69;;;4.37;59.31
85197;BME280;75566;42.698;23.346;2024-03-23T06:26:51;95564.22;;;4.36;58.47
85197;BME280;75566;42.698;23.346;2024-03-23T06:29:17;95561.28;;;4.45;59.34
85197;BME280;75566;42.698;23.346;2024-03-23T06:31:42;95568.19;;;4.75;58.71
85197;BME280;75566;42.698;23.346;2024-03-23T06:34:08;95570.88;;;5.08;59.78
85197;BME280;75566;42.698;23.346;2024-03-23T06:36:33;95563.91;;;5.24;55.94
85197;BME280;75566;42.698;23.346;2024-03-23T06:38:58;95573.03;;;5.27;57.06
85197;BME280;75566;42.698;23.346;2024-03-23T06:41:25;95564.88;;;5.27;56.63
85197;BME280;75566;42.698;23.346;2024-03-23T06:43:50;95567.56;;;5.44;56.51
85197;BME280;75566;42.698;23.346;2024-03-23T06:46:16;95564.28;;;5.62;56.20
85197;BME280;75566;42.698;23.346;2024-03-23T06:48:41;95568.41;;;5.80;55.10
85197;BME280;75566;42.698;23.346;2024-03-23T06:51:07;95563.88;;;6.00;55.08
85197;BME280;75566;42.698;23.346;2024-03-23T06:53:32;95560.03;;;6.25;55.17
85197;BME280;75566;42.698;23.346;2024-03-23T06:55:58;95569.22;;;6.53;54.07
85197;BME280;75566;42.698;23.346;2024-03-23T06:58:25;95559.25;;;6.66;52.99
85197;BME280;75566;42.698;23.346;2024-03-23T07:00:50;95567.50;;;6.85;54.41
85197;BME280;75566;42.698;23.346;2024-03-23T07:03:19;95565.53;;;7.10;51.55
85197;BME280;75566;42.698;23.346;2024-03-23T07:05:44;95556.31;;;7.19;52.22
85197;BME280;75566;42.698;23.346;2024-03-23T07:08:11;95557.66;;;7.31;52.38
85197;BME280;75566;42.698;23.346;2024-03-23T07:10:39;95553.00;;;7.51;49.63
85197;BME280;75566;42.698;23.346;2024-03-23T07:13:05;95561.69;;;7.68;52.15
85197;BME280;75566;42.698;23.346;2024-03-23T07:15:31;95554.06;;;7.86;51.26
85197;BME280;75566;42.698;23.346;2024-03-23T07:17:56;95548.91;;;7.63;48.48
85197;BME280;75566;42.698;23.346;2024-03-23T07:20:22;95544.06;;;7.31;50.12
85197;BME280;75566;42.698;23.346;2024-03-23T07:22:48;95544.56;;;7.30;49.42
85197;BME280;75566;42.698;23.346;2024-03-23T07:25:14;95539.84;;;7.30;49.95
85197;BME280;75566;42.698;23.346;2024-03-23T07:27:39;95538.06;;;7.14;50.23
85197;BME280;75566;42.698;23.346;2024-03-23T07:30:06;95539.47;;;7.21;49.87
85197;BME280;75566;42.698;23.346;2024-03-23T07:32:32;95533.34;;;7.39;50.82
85197;BME280;75566;42.698;23.346;2024-03-23T07:34:57;95537.56;;;7.35;50.08
85197;BME280;75566;42.698;23.346;2024-03-23T07:37:23;95532.63;;;7.58;51.26
85197;BME280;75566;42.698;23.346;2024-03-23T07:39:48;95536.84;;;7.97;50.74
85197;BME280;75566;42.698;23.346;2024-03-23T07:42:14;95526.72;;;8.29;48.68
85197;BME280;75566;42.698;23.346;2024-03-23T07:44:39;95529.69;;;8.64;48.36
85197;BME280;75566;42.698;23.346;2024-03-23T07:47:05;95523.59;;;8.71;48.59
85197;BME280;75566;42.698;23.346;2024-03-23T07:49:31;95523.06;;;8.59;46.06
85197;BME280;75566;42.698;23.346;2024-03-23T07:51:56;95524.31;;;8.58;46.93
85197;BME280;75566;42.698;23.346;2024-03-23T07:54:22;95518.28;;;8.65;46.63
85197;BME280;75566;42.698;23.346;2024-03-23T07:56:47;95519.22;;;8.81;47.25
85197;BME280;75566;42.698;23.346;2024-03-23T07:59:12;95520.00;;;8.95;46.77
85197;BME280;75566;42.698;23.346;2024-03-23T08:01:38;95520.00;;;9.08;46.07
85197;BME280;75566;42.698;23.346;2024-03-23T08:04:04;95515.19;;;9.14;45.02
85197;BME280;75566;42.698;23.346;2024-03-23T08:06:29;95522.00;;;9.34;44.47
85197;BME280;75566;42.698;23.346;2024-03-23T08:08:55;95514.97;;;8.99;45.88
85197;BME280;75566;42.698;23.346;2024-03-23T08:11:28;95515.22;;;8.69;45.89
85197;BME280;75566;42.698;23.346;2024-03-23T08:13:55;95515.34;;;8.90;44.98
85197;BME280;75566;42.698;23.346;2024-03-23T08:16:20;95516.22;;;9.11;45.26
85197;BME280;75566;42.698;23.346;2024-03-23T08:18:46;95514.25;;;9.39;45.01
85197;BME280;75566;42.698;23.346;2024-03-23T08:21:12;95502.03;;;9.66;43.73
85197;BME280;75566;42.698;23.346;2024-03-23T08:23:37;95510.13;;;9.93;43.79
85197;BME280;75566;42.698;23.346;2024-03-23T08:26:08;95502.91;;;10.30;44.86
85197;BME280;75566;42.698;23.346;2024-03-23T08:28:34;95501.56;;;10.65;43.20
85197;BME280;75566;42.698;23.346;2024-03-23T08:31:07;95497.19;;;10.91;42.87
85197;BME280;75566;42.698;23.346;2024-03-23T08:33:33;95492.78;;;11.09;42.46
85197;BME280;75566;42.698;23.346;2024-03-23T08:36:04;95497.22;;;11.20;40.16
85197;BME280;75566;42.698;23.346;2024-03-23T08:38:29;95493.25;;;11.28;42.04
85197;BME280;75566;42.698;23.346;2024-03-23T08:40:59;95486.22;;;11.48;40.42
85197;BME280;75566;42.698;23.346;2024-03-23T08:43:25;95482.84;;;11.71;41.17
85197;BME280;75566;42.698;23.346;2024-03-23T08:45:51;95484.63;;;11.97;38.70
85197;BME280;75566;42.698;23.346;2024-03-23T08:48:17;95476.78;;;12.16;38.04
85197;BME280;75566;42.698;23.346;2024-03-23T08:50:43;95481.94;;;12.35;38.26
85197;BME280;75566;42.698;23.346;2024-03-23T08:53:09;95470.78;;;12.18;38.68
85197;BME280;75566;42.698;23.346;2024-03-23T08:55:34;95475.56;;;12.56;38.50
85197;BME280;75566;42.698;23.346;2024-03-23T08:58:00;95466.38;;;12.76;38.62
85197;BME280;75566;42.698;23.346;2024-03-23T09:00:26;95455.78;;;12.88;38.82
85197;BME280;75566;42.698;23.346;2024-03-23T09:02:51;95457.41;;;12.99;37.77
85197;BME280;75566;42.698;23.346;2024-03-23T09:05:18;95455.38;;;13.07;36.86
85197;BME280;75566;42.698;23.346;2024-03-23T09:07:43;95450.06;;;13.17;36.53
85197;BME280;75566;42.698;23.346;2024-03-23T09:10:09;95447.28;;;13.25;37.50
85197;BME280;75566;42.698;23.346;2024-03-23T09:12:34;95439.03;;;13.25;35.52
85197;BME280;75566;42.698;23.346;2024-03-23T09:15:00;95433.91;;;13.29;37.67
85197;BME280;75566;42.698;23.346;2024-03-23T09:17:25;95431.69;;;13.43;40.88
85197;BME280;75566;42.698;23.346;2024-03-23T09:19:51;95426.28;;;13.60;36.24
85197;BME280;75566;42.698;23.346;2024-03-23T09:22:16;95415.00;;;13.48;35.18
85197;BME280;75566;42.698;23.346;2024-03-23T09:24:42;95411.16;;;13.44;35.91
85197;BME280;75566;42.698;23.346;2024-03-23T09:27:07;95414.09;;;12.59;37.48
85197;BME280;75566;42.698;23.346;2024-03-23T09:29:33;95408.81;;;12.46;37.72
85197;BME280;75566;42.698;23.346;2024-03-23T09:31:58;95402.94;;;12.34;37.70
85197;BME280;75566;42.698;23.346;2024-03-23T09:34:24;95411.72;;;12.32;37.15
85197;BME280;75566;42.698;23.346;2024-03-23T09:36:52;95414.09;;;12.21;38.59
85197;BME280;75566;42.698;23.346;2024-03-23T09:39:18;95399.66;;;12.35;37.61
85197;BME280;75566;42.698;23.346;2024-03-23T09:41:45;95392.31;;;12.53;37.70
85197;BME280;75566;42.698;23.346;2024-03-23T09:44:11;95385.56;;;12.54;36.70
85197;BME280;75566;42.698;23.346;2024-03-23T09:46:36;95386.97;;;12.78;36.11
85197;BME280;75566;42.698;23.346;2024-03-23T09:49:06;95379.69;;;13.37;35.66
85197;BME280;75566;42.698;23.346;2024-03-23T09:51:35;95371.28;;;13.68;35.87
85197;BME280;75566;42.698;23.346;2024-03-23T09:54:01;95366.34;;;13.99;35.57
85197;BME280;75566;42.698;23.346;2024-03-23T09:56:26;95364.25;;;14.32;36.28
85197;BME280;75566;42.698;23.346;2024-03-23T09:59:00;95363.09;;;14.60;35.47
85197;BME280;75566;42.698;23.346;2024-03-23T10:01:26;95356.50;;;14.81;34.97
85197;BME280;75566;42.698;23.346;2024-03-23T10:03:51;95354.22;;;15.05;34.11
85197;BME280;75566;42.698;23.346;2024-03-23T10:06:21;95354.28;;;15.14;32.25
85197;BME280;75566;42.698;23.346;2024-03-23T10:08:47;95347.09;;;14.67;33.13
85197;BME280;75566;42.698;23.346;2024-03-23T10:11:16;95344.25;;;14.74;33.56
85197;BME280;75566;42.698;23.346;2024-03-23T10:13:43;95344.63;;;14.53;32.18
85197;BME280;75566;42.698;23.346;2024-03-23T10:16:09;95333.34;;;14.41;32.91
85197;BME280;75566;42.698;23.346;2024-03-23T10:18:39;95332.22;;;14.45;33.23
85197;BME280;75566;42.698;23.346;2024-03-23T10:21:11;95328.81;;;14.36;31.87
85197;BME280;75566;42.698;23.346;2024-03-23T10:23:38;95327.69;;;14.39;32.12
85197;BME280;75566;42.698;23.346;2024-03-23T10:26:22;95328.91;;;14.04;32.78
85197;BME280;75566;42.698;23.346;2024-03-23T10:28:55;95319.84;;;14.11;32.66
85197;BME280;75566;42.698;23.346;2024-03-23T10:31:27;95308.56;;;14.24;32.88
85197;BME280;75566;42.698;23.346;2024-03-23T10:33:54;95309.88;;;14.40;31.85
85197;BME280;75566;42.698;23.346;2024-03-23T10:36:21;95309.28;;;14.85;31.78
85197;BME280;75566;42.698;23.346;2024-03-23T10:38:47;95290.88;;;14.87;31.90
85197;BME280;75566;42.698;23.346;2024-03-23T10:41:14;95296.66;;;14.64;30.44
85197;BME280;75566;42.698;23.346;2024-03-23T10:43:40;95293.06;;;14.54;30.86
85197;BME280;75566;42.698;23.346;2024-03-23T10:46:08;95284.16;;;14.63;32.54
85197;BME280;75566;42.698;23.346;2024-03-23T10:48:34;95275.97;;;14.90;30.28
85197;BME280;75566;42.698;23.346;2024-03-23T10:51:00;95277.94;;;14.63;30.14
85197;BME280;75566;42.698;23.346;2024-03-23T10:53:27;95266.50;;;14.84;30.31
85197;BME280;75566;42.698;23.346;2024-03-23T10:55:54;95262.47;;;15.12;29.46
85197;BME280;75566;42.698;23.346;2024-03-23T10:58:37;95254.09;;;15.74;31.51
85197;BME280;75566;42.698;23.346;2024-03-23T11:01:03;95248.03;;;15.85;28.74
85197;BME280;75566;42.698;23.346;2024-03-23T11:03:36;95243.72;;;15.92;30.69
85197;BME280;75566;42.698;23.346;2024-03-23T11:06:03;95229.69;;;16.27;30.02
85197;BME280;75566;42.698;23.346;2024-03-23T11:08:30;95229.09;;;16.28;29.60
85197;BME280;75566;42.698;23.346;2024-03-23T11:11:31;95217.63;;;16.41;28.38
85197;BME280;75566;42.698;23.346;2024-03-23T11:13:59;95213.56;;;16.62;28.39
85197;BME280;75566;42.698;23.346;2024-03-23T11:16:28;95203.84;;;16.80;30.20
85197;BME280;75566;42.698;23.346;2024-03-23T11:19:40;95202.63;;;17.03;28.76
85197;BME280;75566;42.698;23.346;2024-03-23T11:22:05;95192.88;;;17.12;28.79
85197;BME280;75566;42.698;23.346;2024-03-23T11:24:31;95188.53;;;17.40;27.15
85197;BME280;75566;42.698;23.346;2024-03-23T11:26:57;95192.41;;;17.56;26.35
85197;BME280;75566;42.698;23.346;2024-03-23T11:29:27;95184.34;;;17.70;27.49
85197;BME280;75566;42.698;23.346;2024-03-23T11:31:53;95181.25;;;17.97;27.46
85197;BME280;75566;42.698;23.346;2024-03-23T11:34:19;95179.78;;;18.06;27.49
85197;BME280;75566;42.698;23.346;2024-03-23T11:36:46;95168.03;;;18.17;26.20
85197;BME280;75566;42.698;23.346;2024-03-23T11:41:49;95163.53;;;17.59;26.12
85197;BME280;75566;42.698;23.346;2024-03-23T11:44:22;95150.22;;;17.77;26.61
85197;BME280;75566;42.698;23.346;2024-03-23T11:46:49;95153.91;;;17.39;26.73
85197;BME280;75566;42.698;23.346;2024-03-23T11:49:24;95152.41;;;17.48;25.87
85197;BME280;75566;42.698;23.346;2024-03-23T11:51:51;95140.06;;;17.70;26.04
85197;BME280;75566;42.698;23.346;2024-03-23T11:54:20;95133.47;;;17.75;26.18
85197;BME280;75566;42.698;23.346;2024-03-23T11:57:04;95124.34;;;17.73;25.59
85197;BME280;75566;42.698;23.346;2024-03-23T12:01:58;95114.03;;;18.28;26.79
85197;BME280;75566;42.698;23.346;2024-03-23T12:04:28;95111.38;;;18.63;26.94
85197;BME280;75566;42.698;23.346;2024-03-23T12:09:39;95103.75;;;19.09;24.55
85197;BME280;75566;42.698;23.346;2024-03-23T12:12:15;95089.16;;;19.20;24.94
85197;BME280;75566;42.698;23.346;2024-03-23T12:15:02;95090.38;;;19.41;24.26
85197;BME280;75566;42.698;23.346;2024-03-23T12:17:28;95077.09;;;19.39;23.53
85197;BME280;75566;42.698;23.346;2024-03-23T12:19:53;95081.75;;;19.60;24.08
85197;BME280;75566;42.698;23.346;2024-03-23T12:22:23;95076.47;;;19.76;24.69
85197;BME280;75566;42.698;23.346;2024-03-23T12:24:49;95064.69;;;20.01;22.95
85197;BME280;75566;42.698;23.346;2024-03-23T12:27:15;95048.41;;;19.96;22.30
85197;BME280;75566;42.698;23.346;2024-03-23T12:29:40;95064.22;;;20.19;23.23
85197;BME280;75566;42.698;23.346;2024-03-23T12:32:11;95057.44;;;19.96;23.60
85197;BME280;75566;42.698;23.346;2024-03-23T12:34:37;95052.84;;;20.26;22.75
85197;BME280;75566;42.698;23.346;2024-03-23T12:37:03;95047.09;;;20.62;22.92
85197;BME280;75566;42.698;23.346;2024-03-23T12:39:29;95049.31;;;20.91;21.84
85197;BME280;75566;42.698;23.346;2024-03-23T12:41:55;95048.94;;;20.32;21.09
85197;BME280;75566;42.698;23.346;2024-03-23T12:44:21;95056.00;;;20.21;20.93
85197;BME280;75566;42.698;23.346;2024-03-23T12:46:46;95041.56;;;19.85;22.10
85197;BME280;75566;42.698;23.346;2024-03-23T12:49:12;95035.19;;;20.08;21.39
85197;BME280;75566;42.698;23.346;2024-03-23T12:51:37;95045.69;;;19.60;21.02
85197;BME280;75566;42.698;23.346;2024-03-23T12:54:03;95022.50;;;19.79;20.56
85197;BME280;75566;42.698;23.346;2024-03-23T12:56:29;95032.06;;;20.27;21.44
85197;BME280;75566;42.698;23.346;2024-03-23T12:58:55;95018.53;;;20.73;20.87
85197;BME280;75566;42.698;23.346;2024-03-23T13:01:25;95025.63;;;19.36;19.87
85197;BME280;75566;42.698;23.346;2024-03-23T13:03:51;95019.72;;;19.30;20.06
85197;BME280;75566;42.698;23.346;2024-03-23T13:06:17;95013.34;;;19.65;19.96
85197;BME280;75566;42.698;23.346;2024-03-23T13:08:46;95004.63;;;20.34;19.56
85197;BME280;75566;42.698;23.346;2024-03-23T13:11:12;95003.00;;;20.82;18.80
85197;BME280;75566;42.698;23.346;2024-03-23T13:13:40;94997.13;;;20.90;18.55
85197;BME280;75566;42.698;23.346;2024-03-23T13:16:07;94996.09;;;20.97;18.31
85197;BME280;75566;42.698;23.346;2024-03-23T13:18:32;94997.84;;;21.32;17.95
85197;BME280;75566;42.698;23.346;2024-03-23T13:20:58;94987.69;;;21.66;18.00
85197;BME280;75566;42.698;23.346;2024-03-23T13:23:24;94979.50;;;21.84;17.31
85197;BME280;75566;42.698;23.346;2024-03-23T13:25:54;94986.13;;;21.77;15.39
85197;BME280;75566;42.698;23.346;2024-03-23T13:28:23;94979.69;;;21.88;15.96
85197;BME280;75566;42.698;23.346;2024-03-23T13:30:55;94973.38;;;22.17;16.37
85197;BME280;75566;42.698;23.346;2024-03-23T13:33:21;94968.81;;;21.78;15.14
85197;BME280;75566;42.698;23.346;2024-03-23T13:35:51;94968.41;;;21.70;14.51
85197;BME280;75566;42.698;23.346;2024-03-23T13:38:16;94969.94;;;21.29;14.56
85197;BME280;75566;42.698;23.346;2024-03-23T13:40:58;94961.38;;;20.70;15.93
85197;BME280;75566;42.698;23.346;2024-03-23T13:43:25;94963.81;;;20.50;15.13
85197;BME280;75566;42.698;23.346;2024-03-23T13:45:56;94957.41;;;20.34;15.71
85197;BME280;75566;42.698;23.346;2024-03-23T13:48:24;94956.88;;;20.91;15.73
85197;BME280;75566;42.698;23.346;2024-03-23T13:51:03;94955.53;;;21.05;15.50
85197;BME280;75566;42.698;23.346;2024-03-23T13:53:29;94945.50;;;21.28;15.92
85197;BME280;75566;42.698;23.346;2024-03-23T13:55:55;94937.94;;;21.58;14.79